Time;durP1;ratioP1;P1;durP2;ratioP2;P2;SDS_P1;SDS_P2;PMS_P1;PMS_P2;Temp;Humidity;BMP_temperature;BMP_pressure;BME280_temperature;BME280_humidity;BME280_pressure;Samples;Min_cycle;Max_cycle;Signal;HPM_P1;HPM_P2
2021/01/14 00:00:59;;;;;;;16.40;11.67;;;;;;;;;;5016583;28;20700;-76
2021/01/14 00:03:25;;;;;;;11.40;9.20;;;;;;;;;;5016485;28;20492;-76
2021/01/14 00:05:51;;;;;;;16.27;10.48;;;;;;;;;;5016359;28;20199;-76
2021/01/14 00:08:17;;;;;;;18.48;11.23;;;;;;;;;;5016650;28;20218;-77
2021/01/14 00:10:43;;;;;;;18.02;11.38;;;;;;;;;;5016478;28;20174;-77
2021/01/14 00:13:10;;;;;;;18.17;10.85;;;;;;;;;;5016275;28;20189;-76
2021/01/14 00:15:36;;;;;;;21.13;10.40;;;;;;;;;;5015947;28;20205;-76
2021/01/14 00:18:02;;;;;;;20.98;11.48;;;;;;;;;;5016300;28;20177;-77
2021/01/14 00:20:30;;;;;;;15.15;11.40;;;;;;;;;;5016200;28;20178;-75
2021/01/14 00:22:56;;;;;;;19.27;10.75;;;;;;;;;;5015987;28;20171;-76
2021/01/14 00:25:22;;;;;;;20.25;11.13;;;;;;;;;;5015679;28;20629;-76
2021/01/14 00:27:50;;;;;;;16.30;8.10;;;;;;;;;;5016116;28;20186;-78
2021/01/14 00:30:21;;;;;;;16.63;9.93;;;;;;;;;;5016054;28;20176;-76
2021/01/14 00:32:47;;;;;;;26.20;11.30;;;;;;;;;;5016193;28;20170;-77
2021/01/14 00:35:13;;;;;;;14.10;9.45;;;;;;;;;;5015649;28;20219;-76
2021/01/14 00:37:50;;;;;;;18.30;10.27;;;;;;;;;;5016232;28;20178;-76
2021/01/14 00:40:17;;;;;;;16.35;10.77;;;;;;;;;;5016115;28;20184;-78
2021/01/14 00:42:43;;;;;;;12.77;9.40;;;;;;;;;;5015945;28;20260;-79
2021/01/14 00:45:09;;;;;;;18.92;9.10;;;;;;;;;;5013955;28;20281;-75
2021/01/14 00:47:36;;;;;;;15.30;9.40;;;;;;;;;;5015844;28;20173;-77
2021/01/14 00:50:03;;;;;;;17.92;9.73;;;;;;;;;;5015677;28;20653;-77
2021/01/14 00:52:29;;;;;;;20.08;9.98;;;;;;;;;;5015815;28;20181;-77
2021/01/14 00:54:55;;;;;;;26.20;9.50;;;;;;;;;;5015525;28;20549;-80
2021/01/14 00:57:21;;;;;;;14.73;8.70;;;;;;;;;;5015669;28;20416;-78
2021/01/14 00:59:47;;;;;;;12.00;7.97;;;;;;;;;;5014543;28;20921;-79
2021/01/14 01:02:13;;;;;;;18.42;7.60;;;;;;;;;;5014220;28;20183;-77
2021/01/14 01:04:39;;;;;;;18.90;6.78;;;;;;;;;;5015141;28;20235;-78
2021/01/14 01:07:06;;;;;;;19.38;8.30;;;;;;;;;;5015203;28;20179;-76
2021/01/14 01:09:32;;;;;;;21.20;8.18;;;;;;;;;;5015362;28;20259;-77
2021/01/14 01:11:58;;;;;;;17.17;7.60;;;;;;;;;;5015362;28;20207;-78
2021/01/14 01:14:24;;;;;;;8.50;5.90;;;;;;;;;;5014955;28;20655;-77
2021/01/14 01:16:53;;;;;;;17.70;6.30;;;;;;;;;;5015020;28;20277;-78
2021/01/14 01:19:19;;;;;;;15.30;7.53;;;;;;;;;;5013663;28;20469;-77
2021/01/14 01:21:45;;;;;;;15.88;6.38;;;;;;;;;;5015086;28;20190;-76
2021/01/14 01:24:11;;;;;;;9.82;5.35;;;;;;;;;;5013281;28;20217;-78
2021/01/14 01:26:37;;;;;;;17.15;6.25;;;;;;;;;;5014944;28;20540;-75
2021/01/14 01:29:04;;;;;;;11.00;4.20;;;;;;;;;;5014893;28;20175;-78
2021/01/14 01:31:30;;;;;;;8.27;3.60;;;;;;;;;;5014665;28;20198;-75
2021/01/14 01:33:56;;;;;;;10.75;4.32;;;;;;;;;;5014533;28;20186;-76
2021/01/14 01:36:22;;;;;;;15.95;4.13;;;;;;;;;;5014896;28;20174;-76
2021/01/14 01:38:49;;;;;;;12.00;2.95;;;;;;;;;;5014859;28;20186;-79
2021/01/14 01:41:15;;;;;;;6.20;2.60;;;;;;;;;;5013412;28;20187;-75
2021/01/14 01:43:41;;;;;;;8.10;2.37;;;;;;;;;;5014128;28;20264;-77
2021/01/14 01:46:07;;;;;;;5.90;2.28;;;;;;;;;;5014519;28;20430;-76
2021/01/14 01:48:33;;;;;;;9.18;3.60;;;;;;;;;;5014879;28;20186;-77
2021/01/14 01:51:01;;;;;;;7.40;3.38;;;;;;;;;;5014797;28;20205;-78
2021/01/14 01:53:27;;;;;;;10.52;2.80;;;;;;;;;;5014595;28;20168;-75
2021/01/14 01:55:53;;;;;;;6.65;2.25;;;;;;;;;;5012893;28;20212;-79
2021/01/14 01:58:23;;;;;;;6.07;2.75;;;;;;;;;;5014527;28;20174;-76
2021/01/14 02:00:49;;;;;;;11.35;2.50;;;;;;;;;;5014515;28;20178;-75
2021/01/14 02:03:15;;;;;;;8.10;3.08;;;;;;;;;;5014375;28;20186;-77
2021/01/14 02:05:41;;;;;;;9.27;2.35;;;;;;;;;;5013827;28;20197;-75
2021/01/14 02:08:40;;;;;;;13.23;3.55;;;;;;;;;;5014289;28;20206;-77
2021/01/14 02:11:10;;;;;;;9.52;2.33;;;;;;;;;;4991551;28;20271;-77
2021/01/14 02:13:44;;;;;;;11.48;2.80;;;;;;;;;;5013879;28;20191;-77
2021/01/14 02:16:10;;;;;;;6.57;2.42;;;;;;;;;;5013601;28;20219;-77
2021/01/14 02:18:37;;;;;;;8.80;3.40;;;;;;;;;;5013362;28;20183;-80
2021/01/14 02:21:08;;;;;;;7.13;2.00;;;;;;;;;;5013284;28;20188;-76
2021/01/14 02:23:51;;;;;;;7.18;2.65;;;;;;;;;;5012777;28;20202;-77
2021/01/14 02:26:20;;;;;;;4.65;1.90;;;;;;;;;;5013152;28;20173;-78
2021/01/14 02:28:46;;;;;;;8.88;2.42;;;;;;;;;;5013227;28;20180;-78
2021/01/14 02:31:13;;;;;;;5.95;1.50;;;;;;;;;;5013053;28;20201;-77
2021/01/14 02:33:39;;;;;;;4.32;1.70;;;;;;;;;;5012815;28;20336;-78
2021/01/14 02:36:05;;;;;;;9.23;1.40;;;;;;;;;;5012863;28;20208;-78
2021/01/14 02:38:32;;;;;;;8.05;1.35;;;;;;;;;;5013112;28;20188;-76
2021/01/14 02:40:58;;;;;;;5.15;1.95;;;;;;;;;;5013268;28;20526;-78
2021/01/14 02:43:24;;;;;;;11.15;1.50;;;;;;;;;;5013026;28;20185;-76
2021/01/14 02:45:50;;;;;;;6.88;1.67;;;;;;;;;;5012726;28;20650;-76
2021/01/14 02:48:19;;;;;;;5.05;1.55;;;;;;;;;;5013186;28;20181;-78
2021/01/14 02:50:47;;;;;;;4.32;1.45;;;;;;;;;;5012835;28;20185;-76
2021/01/14 02:53:15;;;;;;;8.38;1.85;;;;;;;;;;5012958;28;20178;-75
2021/01/14 02:55:41;;;;;;;5.40;1.50;;;;;;;;;;5012726;28;20259;-76
2021/01/14 02:58:07;;;;;;;6.00;2.95;;;;;;;;;;5012828;28;20185;-77
2021/01/14 03:00:34;;;;;;;5.50;1.40;;;;;;;;;;5013006;28;20173;-79
2021/01/14 03:03:00;;;;;;;5.50;1.38;;;;;;;;;;5012989;28;20408;-78
2021/01/14 03:05:26;;;;;;;7.13;1.80;;;;;;;;;;5012208;28;20567;-77
2021/01/14 03:07:52;;;;;;;8.75;1.48;;;;;;;;;;5012743;28;20272;-78
2021/01/14 03:10:18;;;;;;;6.40;1.70;;;;;;;;;;5012675;28;20205;-77
2021/01/14 03:12:44;;;;;;;6.63;1.45;;;;;;;;;;5012677;28;20416;-76
2021/01/14 03:15:10;;;;;;;6.23;1.33;;;;;;;;;;4991786;28;587535;-78
2021/01/14 03:17:36;;;;;;;5.32;1.10;;;;;;;;;;5013446;28;20189;-76
2021/01/14 03:20:04;;;;;;;3.05;1.00;;;;;;;;;;5013254;28;20186;-77
2021/01/14 03:22:30;;;;;;;4.13;1.60;;;;;;;;;;5014277;28;20186;-78
2021/01/14 03:24:56;;;;;;;3.37;1.10;;;;;;;;;;5016782;28;20256;-76
2021/01/14 03:27:22;;;;;;;4.63;1.23;;;;;;;;;;5017444;28;20504;-75
2021/01/14 03:29:48;;;;;;;8.57;2.00;;;;;;;;;;5017195;28;20266;-76
2021/01/14 03:32:14;;;;;;;4.67;1.17;;;;;;;;;;5017016;28;20413;-77
2021/01/14 03:34:40;;;;;;;10.93;2.00;;;;;;;;;;5016601;28;20437;-77
2021/01/14 03:37:06;;;;;;;3.60;1.15;;;;;;;;;;5017196;28;20213;-77
2021/01/14 03:39:32;;;;;;;8.20;3.28;;;;;;;;;;5017364;28;20182;-75
2021/01/14 03:41:59;;;;;;;3.55;1.08;;;;;;;;;;5017155;28;20175;-77
2021/01/14 03:44:25;;;;;;;6.10;1.60;;;;;;;;;;5016391;28;20209;-76
2021/01/14 03:46:51;;;;;;;5.53;1.55;;;;;;;;;;5016937;28;20206;-76
2021/01/14 03:49:18;;;;;;;6.35;1.58;;;;;;;;;;5016800;28;20659;-74
2021/01/14 03:51:44;;;;;;;6.88;1.35;;;;;;;;;;5017267;28;20512;-74
2021/01/14 03:54:11;;;;;;;8.52;1.38;;;;;;;;;;5016889;28;20208;-75
2021/01/14 03:56:40;;;;;;;4.55;1.40;;;;;;;;;;5022236;28;20193;-75
2021/01/14 03:59:07;;;;;;;2.78;1.40;;;;;;;;;;5016761;28;20194;-77
2021/01/14 04:01:33;;;;;;;7.45;1.88;;;;;;;;;;5016844;28;20185;-77
2021/01/14 04:03:59;;;;;;;4.63;1.33;;;;;;;;;;5016401;28;20655;-75
2021/01/14 04:06:46;;;;;;;7.50;1.65;;;;;;;;;;5016613;28;20174;-77
2021/01/14 04:09:12;;;;;;;5.43;1.35;;;;;;;;;;5016350;28;20194;-76
2021/01/14 04:11:38;;;;;;;4.20;1.90;;;;;;;;;;5015210;28;20169;-77
2021/01/14 04:14:04;;;;;;;7.70;2.10;;;;;;;;;;5014654;28;20177;-79
2021/01/14 04:16:29;;;;;;;9.47;1.50;;;;;;;;;;5016295;28;20437;-73
2021/01/14 04:18:56;;;;;;;6.50;1.87;;;;;;;;;;5016130;28;20419;-76
2021/01/14 04:21:22;;;;;;;11.77;1.73;;;;;;;;;;5016884;28;20417;-74
2021/01/14 04:23:48;;;;;;;4.45;1.83;;;;;;;;;;5016392;28;20208;-76
2021/01/14 04:26:17;;;;;;;4.00;1.77;;;;;;;;;;5016085;28;20197;-74
2021/01/14 04:28:43;;;;;;;6.60;2.00;;;;;;;;;;5016038;28;20436;-74
2021/01/14 04:31:12;;;;;;;9.43;2.17;;;;;;;;;;5016040;28;20203;-75
2021/01/14 04:33:38;;;;;;;4.50;1.90;;;;;;;;;;5015313;28;20178;-78
2021/01/14 04:36:04;;;;;;;4.70;2.00;;;;;;;;;;5015917;28;20211;-75
2021/01/14 04:38:30;;;;;;;7.20;2.35;;;;;;;;;;5015935;28;20901;-75
2021/01/14 04:40:57;;;;;;;12.95;2.03;;;;;;;;;;5014721;28;20902;-76
2021/01/14 04:43:24;;;;;;;5.85;2.95;;;;;;;;;;5015998;28;20175;-75
2021/01/14 04:45:53;;;;;;;9.00;2.28;;;;;;;;;;5015724;28;20494;-75
2021/01/14 04:48:21;;;;;;;7.57;2.15;;;;;;;;;;5015926;28;20171;-76
2021/01/14 04:50:47;;;;;;;8.25;1.70;;;;;;;;;;5015750;28;20173;-75
2021/01/14 04:53:14;;;;;;;9.48;2.28;;;;;;;;;;5015725;28;20177;-75
2021/01/14 04:55:45;;;;;;;8.10;1.90;;;;;;;;;;5015194;28;20190;-74
2021/01/14 04:58:15;;;;;;;3.25;1.13;;;;;;;;;;5015558;28;20552;-75
2021/01/14 05:00:42;;;;;;;6.68;1.58;;;;;;;;;;5015447;28;20231;-75
2021/01/14 05:03:13;;;;;;;7.82;2.00;;;;;;;;;;5015436;28;20174;-75
2021/01/14 05:05:40;;;;;;;7.00;1.45;;;;;;;;;;5015624;28;20205;-75
2021/01/14 05:08:07;;;;;;;8.60;1.70;;;;;;;;;;5015560;28;20230;-77
2021/01/14 05:10:34;;;;;;;3.15;1.48;;;;;;;;;;5015362;28;20185;-76
2021/01/14 05:13:01;;;;;;;2.47;1.27;;;;;;;;;;5015376;28;20256;-77
2021/01/14 05:15:27;;;;;;;4.53;1.38;;;;;;;;;;5014811;28;20212;-76
2021/01/14 05:17:57;;;;;;;12.02;1.98;;;;;;;;;;5015254;28;20173;-77
2021/01/14 05:20:23;;;;;;;9.95;2.65;;;;;;;;;;5014261;28;20204;-77
2021/01/14 05:22:51;;;;;;;4.05;1.35;;;;;;;;;;5015577;28;20601;-77
2021/01/14 05:25:17;;;;;;;9.93;1.60;;;;;;;;;;5014990;28;20307;-79
2021/01/14 05:27:43;;;;;;;6.30;1.57;;;;;;;;;;5015665;28;20203;-78
2021/01/14 05:30:11;;;;;;;4.93;1.60;;;;;;;;;;5015472;28;20413;-76
2021/01/14 05:32:44;;;;;;;5.00;1.73;;;;;;;;;;5014399;28;20172;-74
2021/01/14 05:35:11;;;;;;;4.55;1.48;;;;;;;;;;5014831;28;20667;-75
2021/01/14 05:37:41;;;;;;;5.38;1.75;;;;;;;;;;5014951;28;20197;-76
2021/01/14 05:40:08;;;;;;;9.25;2.00;;;;;;;;;;5014824;28;20178;-76
2021/01/14 05:42:34;;;;;;;6.57;1.70;;;;;;;;;;5015017;28;20179;-77
2021/01/14 05:45:00;;;;;;;7.35;1.48;;;;;;;;;;5013582;28;20210;-77
2021/01/14 05:47:29;;;;;;;5.13;1.40;;;;;;;;;;5014758;28;20174;-76
2021/01/14 05:50:00;;;;;;;6.45;1.70;;;;;;;;;;5014717;28;20175;-76
2021/01/14 05:52:27;;;;;;;10.27;2.13;;;;;;;;;;5014623;28;20171;-78
2021/01/14 05:54:57;;;;;;;5.88;2.55;;;;;;;;;;5014458;28;20195;-77
2021/01/14 05:57:28;;;;;;;5.38;1.77;;;;;;;;;;5014933;28;20178;-76
2021/01/14 05:59:55;;;;;;;5.05;1.52;;;;;;;;;;5015050;28;20171;-76
2021/01/14 06:02:30;;;;;;;3.17;1.55;;;;;;;;;;5014891;28;20190;-76
2021/01/14 06:04:57;;;;;;;7.40;1.65;;;;;;;;;;5013389;28;20230;-76
2021/01/14 06:07:23;;;;;;;3.30;1.10;;;;;;;;;;5015348;28;20180;-77
2021/01/14 06:09:49;;;;;;;6.03;1.23;;;;;;;;;;5014503;28;20184;-76
2021/01/14 06:12:15;;;;;;;4.65;1.67;;;;;;;;;;5015810;28;20177;-73
2021/01/14 06:14:42;;;;;;;3.92;2.22;;;;;;;;;;5015526;28;20614;-77
2021/01/14 06:17:10;;;;;;;5.80;1.70;;;;;;;;;;5015654;28;20214;-76
2021/01/14 06:19:36;;;;;;;8.77;1.77;;;;;;;;;;5014146;28;20620;-78
2021/01/14 06:22:04;;;;;;;6.05;1.30;;;;;;;;;;5014175;28;20596;-76
2021/01/14 06:24:31;;;;;;;10.20;2.22;;;;;;;;;;5013692;28;20232;-75
2021/01/14 06:26:58;;;;;;;13.48;1.92;;;;;;;;;;5013976;28;20184;-77
2021/01/14 06:29:27;;;;;;;4.78;1.83;;;;;;;;;;5013863;28;20174;-77
2021/01/14 06:32:05;;;;;;;5.35;1.70;;;;;;;;;;5013817;28;20602;-76
2021/01/14 06:34:32;;;;;;;4.25;1.55;;;;;;;;;;5013689;28;20200;-75
2021/01/14 06:37:04;;;;;;;4.68;1.38;;;;;;;;;;5013827;28;20176;-76
2021/01/14 06:39:34;;;;;;;5.65;1.20;;;;;;;;;;5010721;28;20279;-76
2021/01/14 06:42:10;;;;;;;7.95;2.08;;;;;;;;;;5013639;28;20683;-75
2021/01/14 06:44:41;;;;;;;7.05;1.88;;;;;;;;;;5013616;28;20202;-79
2021/01/14 06:47:13;;;;;;;6.13;1.80;;;;;;;;;;5012875;28;20832;-77
2021/01/14 06:49:46;;;;;;;5.75;1.40;;;;;;;;;;5013288;28;20195;-77
2021/01/14 06:52:14;;;;;;;5.47;1.40;;;;;;;;;;5013123;28;20219;-76
2021/01/14 06:54:41;;;;;;;3.63;1.60;;;;;;;;;;5013141;28;20204;-78
2021/01/14 06:57:06;;;;;;;12.32;1.92;;;;;;;;;;5013377;28;20190;-77
2021/01/14 06:59:37;;;;;;;5.33;1.37;;;;;;;;;;5013611;28;20255;-78
2021/01/14 07:02:06;;;;;;;2.13;1.60;;;;;;;;;;5013481;28;20790;-76
2021/01/14 07:04:37;;;;;;;7.10;2.03;;;;;;;;;;5012940;28;20268;-77
2021/01/14 07:07:23;;;;;;;2.65;1.67;;;;;;;;;;5013452;28;20172;-76
2021/01/14 07:10:02;;;;;;;6.10;1.92;;;;;;;;;;5006420;28;20247;-76
2021/01/14 07:12:28;;;;;;;2.95;1.83;;;;;;;;;;5013619;28;20175;-78
2021/01/14 07:15:01;;;;;;;9.65;2.58;;;;;;;;;;5012960;28;20188;-78
2021/01/14 07:17:33;;;;;;;5.30;2.08;;;;;;;;;;5012259;28;20184;-77
2021/01/14 07:19:59;;;;;;;4.85;2.10;;;;;;;;;;5013256;28;20179;-76
2021/01/14 07:22:26;;;;;;;4.18;1.45;;;;;;;;;;5012032;28;20255;-77
2021/01/14 07:24:52;;;;;;;2.92;1.92;;;;;;;;;;5012706;28;20575;-78
2021/01/14 07:27:18;;;;;;;10.30;2.63;;;;;;;;;;5013200;28;20171;-76
2021/01/14 07:29:44;;;;;;;8.70;2.55;;;;;;;;;;5013128;28;20231;-76
2021/01/14 07:32:11;;;;;;;4.18;1.70;;;;;;;;;;5012819;28;20237;-75
2021/01/14 07:34:44;;;;;;;5.80;1.75;;;;;;;;;;5012924;28;20196;-76
2021/01/14 07:37:14;;;;;;;6.97;1.40;;;;;;;;;;5013068;28;20579;-75
2021/01/14 07:39:56;;;;;;;5.75;1.80;;;;;;;;;;5013009;28;20634;-77
2021/01/14 07:42:33;;;;;;;7.82;1.98;;;;;;;;;;5012869;28;20570;-76
2021/01/14 07:45:15;;;;;;;3.67;1.63;;;;;;;;;;5012758;28;20247;-77
2021/01/14 07:47:41;;;;;;;9.30;2.20;;;;;;;;;;5013623;28;20242;-77
2021/01/14 07:50:20;;;;;;;21.10;2.95;;;;;;;;;;5012531;28;20169;-75
2021/01/14 07:52:50;;;;;;;12.38;3.03;;;;;;;;;;5011736;28;20198;-77
2021/01/14 07:55:25;;;;;;;4.35;2.28;;;;;;;;;;5012533;28;20192;-74
2021/01/14 07:58:11;;;;;;;4.95;2.67;;;;;;;;;;5013243;28;20542;-76
2021/01/14 08:00:39;;;;;;;5.68;1.95;;;;;;;;;;4999573;28;20601;-77
2021/01/14 08:03:15;;;;;;;5.47;2.83;;;;;;;;;;5013197;28;20535;-75
2021/01/14 08:05:42;;;;;;;6.10;1.60;;;;;;;;;;5011307;28;20698;-76
2021/01/14 08:08:26;;;;;;;4.40;1.85;;;;;;;;;;5014541;28;20176;-74
2021/01/14 08:11:06;;;;;;;11.15;3.00;;;;;;;;;;5016640;28;20187;-74
2021/01/14 08:13:32;;;;;;;12.50;2.30;;;;;;;;;;5016245;28;20255;-75
2021/01/14 08:15:59;;;;;;;11.90;2.25;;;;;;;;;;5016353;28;20263;-78
2021/01/14 08:18:25;;;;;;;7.07;2.20;;;;;;;;;;5016283;28;20174;-75
2021/01/14 08:21:29;;;;;;;8.90;2.95;;;;;;;;;;5016247;28;20216;-76
2021/01/14 08:23:56;;;;;;;4.25;1.65;;;;;;;;;;4936222;29;20748;-76
2021/01/14 08:26:22;;;;;;;4.90;2.28;;;;;;;;;;5002051;28;20190;-75
2021/01/14 08:28:57;;;;;;;9.13;2.80;;;;;;;;;;5016121;28;20185;-73
2021/01/14 08:31:36;;;;;;;9.30;2.85;;;;;;;;;;5016191;28;20268;-76
2021/01/14 08:34:03;;;;;;;6.22;2.15;;;;;;;;;;5015685;28;20202;-74
2021/01/14 08:36:31;;;;;;;7.40;1.95;;;;;;;;;;5015918;28;20178;-73
2021/01/14 08:38:58;;;;;;;5.75;2.22;;;;;;;;;;5015835;28;20186;-76
2021/01/14 08:41:27;;;;;;;5.15;1.98;;;;;;;;;;5015989;28;20178;-75
2021/01/14 08:44:01;;;;;;;6.00;1.95;;;;;;;;;;5015310;28;20196;-75
2021/01/14 08:46:45;;;;;;;7.20;2.35;;;;;;;;;;5015882;28;20221;-75
2021/01/14 08:49:11;;;;;;;5.93;1.90;;;;;;;;;;5014373;28;20297;-76
2021/01/14 08:51:42;;;;;;;7.20;3.13;;;;;;;;;;5014898;28;20187;-76
2021/01/14 08:54:08;;;;;;;9.07;3.28;;;;;;;;;;5015250;28;20690;-75
2021/01/14 08:56:34;;;;;;;7.40;2.55;;;;;;;;;;5015773;28;20643;-76
2021/01/14 08:59:14;;;;;;;4.90;1.80;;;;;;;;;;5015669;28;20664;-75
2021/01/14 09:01:40;;;;;;;11.60;2.40;;;;;;;;;;5015845;28;20183;-74
2021/01/14 09:04:07;;;;;;;6.63;2.47;;;;;;;;;;5015136;28;20208;-77
2021/01/14 09:06:37;;;;;;;4.80;1.65;;;;;;;;;;5015549;28;20181;-74
2021/01/14 09:09:04;;;;;;;7.75;1.98;;;;;;;;;;5015764;28;20197;-76
2021/01/14 09:11:31;;;;;;;7.32;1.90;;;;;;;;;;5014311;28;20184;-75
2021/01/14 09:14:04;;;;;;;10.18;2.20;;;;;;;;;;5013702;28;20177;-75
2021/01/14 09:16:30;;;;;;;7.72;2.05;;;;;;;;;;5015431;28;20547;-76
2021/01/14 09:18:56;;;;;;;6.32;2.13;;;;;;;;;;5014267;28;20184;-75
2021/01/14 09:21:22;;;;;;;4.78;1.63;;;;;;;;;;5014969;28;20184;-74
2021/01/14 09:23:48;;;;;;;3.83;2.25;;;;;;;;;;5014875;28;20230;-76
2021/01/14 09:26:18;;;;;;;6.20;1.88;;;;;;;;;;5015031;28;20197;-75
2021/01/14 09:28:47;;;;;;;3.40;1.65;;;;;;;;;;5014495;28;20175;-77
2021/01/14 09:31:14;;;;;;;5.60;1.75;;;;;;;;;;5014773;28;20178;-75
2021/01/14 09:33:43;;;;;;;7.45;2.08;;;;;;;;;;5014768;28;20595;-75
2021/01/14 09:36:19;;;;;;;9.73;2.28;;;;;;;;;;5014765;28;20206;-77
2021/01/14 09:38:48;;;;;;;7.45;2.20;;;;;;;;;;5014833;28;20205;-76
2021/01/14 09:41:23;;;;;;;4.18;2.00;;;;;;;;;;5014574;28;20178;-75
2021/01/14 09:43:49;;;;;;;7.85;2.10;;;;;;;;;;5014483;28;20204;-76
2021/01/14 09:46:15;;;;;;;4.97;1.90;;;;;;;;;;5014997;28;20166;-77
2021/01/14 09:48:41;;;;;;;5.78;1.85;;;;;;;;;;5014853;28;20173;-75
2021/01/14 09:51:08;;;;;;;3.90;1.92;;;;;;;;;;5014568;28;20174;-76
2021/01/14 09:53:34;;;;;;;2.75;1.60;;;;;;;;;;5014210;28;20183;-78
2021/01/14 09:56:02;;;;;;;4.75;2.60;;;;;;;;;;5014688;28;20209;-74
2021/01/14 09:58:29;;;;;;;4.38;1.73;;;;;;;;;;5014498;28;20178;-77
2021/01/14 10:00:56;;;;;;;7.75;2.60;;;;;;;;;;5014473;28;20184;-76
2021/01/14 10:03:23;;;;;;;4.05;2.22;;;;;;;;;;5014156;28;20172;-76
2021/01/14 10:05:50;;;;;;;5.85;1.90;;;;;;;;;;5014157;28;20198;-76
2021/01/14 10:08:22;;;;;;;6.82;2.35;;;;;;;;;;5014397;28;20177;-76
2021/01/14 10:10:49;;;;;;;3.58;1.83;;;;;;;;;;5014438;28;20642;-74
2021/01/14 10:13:15;;;;;;;7.88;2.67;;;;;;;;;;5014295;28;20185;-75
2021/01/14 10:15:41;;;;;;;4.80;2.20;;;;;;;;;;5013756;28;20226;-76
2021/01/14 10:18:08;;;;;;;4.82;2.30;;;;;;;;;;5014243;28;20240;-76
2021/01/14 10:20:34;;;;;;;7.13;2.50;;;;;;;;;;5014139;28;20232;-74
2021/01/14 10:23:00;;;;;;;6.28;2.10;;;;;;;;;;5014080;28;20186;-76
2021/01/14 10:25:26;;;;;;;7.13;1.80;;;;;;;;;;5013429;28;20238;-76
2021/01/14 10:28:02;;;;;;;5.38;2.70;;;;;;;;;;5013944;28;20174;-77
2021/01/14 10:30:28;;;;;;;7.35;2.15;;;;;;;;;;5013663;28;20176;-74
2021/01/14 10:33:04;;;;;;;10.23;2.65;;;;;;;;;;5013899;28;20229;-76
2021/01/14 10:35:31;;;;;;;5.80;2.30;;;;;;;;;;5013319;28;20218;-76
2021/01/14 10:38:06;;;;;;;4.75;2.50;;;;;;;;;;5013702;28;20545;-76
2021/01/14 10:40:33;;;;;;;8.40;2.78;;;;;;;;;;5013726;28;20583;-76
2021/01/14 10:43:01;;;;;;;4.68;2.20;;;;;;;;;;5013698;28;20549;-76
2021/01/14 10:45:28;;;;;;;4.55;2.28;;;;;;;;;;5013127;28;20205;-76
2021/01/14 10:48:13;;;;;;;7.50;2.67;;;;;;;;;;5013571;28;20185;-76
2021/01/14 10:50:43;;;;;;;4.07;2.08;;;;;;;;;;5013500;28;20168;-78
2021/01/14 10:53:09;;;;;;;7.72;2.75;;;;;;;;;;5013510;28;20178;-77
2021/01/14 10:55:36;;;;;;;5.35;2.38;;;;;;;;;;5012982;28;20200;-75
2021/01/14 10:58:05;;;;;;;7.05;2.50;;;;;;;;;;5013817;28;20213;-77
2021/01/14 11:00:36;;;;;;;6.93;2.20;;;;;;;;;;5013682;28;20174;-77
2021/01/14 11:03:05;;;;;;;5.88;2.70;;;;;;;;;;5013673;28;20330;-77
2021/01/14 11:05:50;;;;;;;3.35;2.70;;;;;;;;;;5013185;28;20203;-75
2021/01/14 11:08:17;;;;;;;5.90;2.63;;;;;;;;;;5013557;28;20629;-74
2021/01/14 11:10:43;;;;;;;5.93;3.00;;;;;;;;;;5013476;28;20178;-76
2021/01/14 11:13:09;;;;;;;5.43;2.53;;;;;;;;;;5013459;28;20624;-76
2021/01/14 11:15:35;;;;;;;8.27;3.00;;;;;;;;;;5012856;28;20210;-75
2021/01/14 11:18:02;;;;;;;5.03;3.25;;;;;;;;;;5013285;28;20178;-76
2021/01/14 11:20:28;;;;;;;6.22;2.72;;;;;;;;;;5013321;28;20182;-74
2021/01/14 11:22:54;;;;;;;9.93;2.78;;;;;;;;;;5013617;28;20258;-77
2021/01/14 11:25:21;;;;;;;10.20;2.60;;;;;;;;;;5012876;28;20289;-75
2021/01/14 11:27:47;;;;;;;10.85;2.58;;;;;;;;;;5013327;28;20185;-78
2021/01/14 11:30:13;;;;;;;4.57;2.45;;;;;;;;;;5013267;28;20180;-76
2021/01/14 11:32:39;;;;;;;3.92;2.35;;;;;;;;;;5013291;28;20221;-76
2021/01/14 11:35:05;;;;;;;6.90;3.17;;;;;;;;;;5012867;28;20206;-75
2021/01/14 11:37:31;;;;;;;7.78;3.50;;;;;;;;;;5011826;28;20425;-75
2021/01/14 11:39:57;;;;;;;4.47;2.80;;;;;;;;;;5013063;28;20179;-74
2021/01/14 11:42:26;;;;;;;5.88;2.53;;;;;;;;;;5012227;28;20911;-75
2021/01/14 11:44:52;;;;;;;5.50;3.25;;;;;;;;;;5016517;28;20615;-77
2021/01/14 11:47:18;;;;;;;8.03;2.63;;;;;;;;;;5016959;28;20175;-78
2021/01/14 11:49:44;;;;;;;3.35;2.38;;;;;;;;;;5016784;28;20469;-76
2021/01/14 11:52:10;;;;;;;6.20;2.60;;;;;;;;;;5016894;28;20538;-76
2021/01/14 11:54:36;;;;;;;2.97;2.23;;;;;;;;;;5016507;28;20195;-76
2021/01/14 11:57:02;;;;;;;5.47;2.03;;;;;;;;;;5016719;28;20896;-77
2021/01/14 11:59:28;;;;;;;6.97;2.58;;;;;;;;;;5016788;28;20413;-74
2021/01/14 12:01:57;;;;;;;7.87;3.07;;;;;;;;;;5016748;28;20179;-76
2021/01/14 12:04:23;;;;;;;7.03;2.42;;;;;;;;;;5014741;28;20961;-75
2021/01/14 12:06:55;;;;;;;4.80;2.50;;;;;;;;;;5016687;28;20188;-77
2021/01/14 12:09:21;;;;;;;6.35;3.42;;;;;;;;;;5016580;28;20787;-75
2021/01/14 12:11:47;;;;;;;8.00;3.10;;;;;;;;;;5016758;28;20638;-76
2021/01/14 12:14:13;;;;;;;8.02;3.65;;;;;;;;;;5016045;28;20919;-76
2021/01/14 12:16:39;;;;;;;5.68;3.35;;;;;;;;;;5015258;28;20667;-74
2021/01/14 12:19:05;;;;;;;7.13;3.03;;;;;;;;;;5016593;28;20183;-74
2021/01/14 12:21:31;;;;;;;8.97;3.30;;;;;;;;;;5016484;28;20197;-75
2021/01/14 12:23:57;;;;;;;7.40;3.73;;;;;;;;;;5015892;28;20484;-74
2021/01/14 12:26:23;;;;;;;5.73;3.03;;;;;;;;;;5016110;28;20830;-74
2021/01/14 12:28:49;;;;;;;8.77;3.25;;;;;;;;;;5016497;28;20398;-76
2021/01/14 12:31:15;;;;;;;5.60;2.73;;;;;;;;;;5016245;28;20540;-76
2021/01/14 12:33:41;;;;;;;10.70;3.95;;;;;;;;;;5015883;28;20417;-74
2021/01/14 12:36:07;;;;;;;5.90;3.58;;;;;;;;;;5014691;28;20276;-75
2021/01/14 12:38:33;;;;;;;5.38;2.72;;;;;;;;;;5015831;28;20181;-77
2021/01/14 12:40:59;;;;;;;9.07;4.00;;;;;;;;;;5014577;28;20190;-77
2021/01/14 12:43:25;;;;;;;7.57;3.08;;;;;;;;;;5015871;28;20175;-73
2021/01/14 12:45:52;;;;;;;4.35;2.45;;;;;;;;;;5015560;28;20210;-76
2021/01/14 12:48:18;;;;;;;7.10;2.80;;;;;;;;;;5015890;28;20174;-77
2021/01/14 12:50:44;;;;;;;3.38;2.35;;;;;;;;;;5015577;28;20178;-75
2021/01/14 12:53:10;;;;;;;7.22;2.80;;;;;;;;;;5015351;28;20528;-75
2021/01/14 12:55:36;;;;;;;7.25;2.90;;;;;;;;;;5013947;28;20549;-76
2021/01/14 12:58:03;;;;;;;9.77;3.20;;;;;;;;;;5015604;28;20182;-75
2021/01/14 13:00:29;;;;;;;4.90;2.55;;;;;;;;;;5015501;28;20179;-74
2021/01/14 13:02:55;;;;;;;6.45;3.35;;;;;;;;;;5015392;28;20175;-76
2021/01/14 13:05:21;;;;;;;6.35;3.50;;;;;;;;;;5013809;28;20214;-77
2021/01/14 13:07:47;;;;;;;9.13;4.65;;;;;;;;;;5015509;28;20167;-76
2021/01/14 13:10:13;;;;;;;5.60;3.67;;;;;;;;;;5015716;28;20184;-77
2021/01/14 13:12:39;;;;;;;6.93;3.95;;;;;;;;;;5015493;28;20412;-76
2021/01/14 13:15:06;;;;;;;5.10;3.33;;;;;;;;;;5014747;28;20287;-75
2021/01/14 13:17:32;;;;;;;6.80;2.88;;;;;;;;;;5014177;28;20435;-74
2021/01/14 13:19:59;;;;;;;12.45;3.58;;;;;;;;;;5014072;28;20233;-77
2021/01/14 13:22:25;;;;;;;6.55;3.35;;;;;;;;;;5015334;28;20171;-75
2021/01/14 13:24:51;;;;;;;9.90;3.58;;;;;;;;;;5014597;28;20268;-76
2021/01/14 13:27:17;;;;;;;4.60;3.22;;;;;;;;;;5015191;28;20175;-77
2021/01/14 13:29:43;;;;;;;11.88;3.53;;;;;;;;;;5015320;28;20261;-76
2021/01/14 13:32:09;;;;;;;4.80;3.15;;;;;;;;;;5015120;28;20171;-74
2021/01/14 13:34:35;;;;;;;5.35;3.17;;;;;;;;;;5014671;28;20285;-75
2021/01/14 13:37:05;;;;;;;6.70;4.10;;;;;;;;;;5014872;28;20254;-75
2021/01/14 13:39:31;;;;;;;5.68;3.40;;;;;;;;;;5015067;28;20602;-75
2021/01/14 13:41:57;;;;;;;8.55;3.70;;;;;;;;;;5014856;28;20178;-75
2021/01/14 13:44:24;;;;;;;7.28;2.80;;;;;;;;;;5014245;28;20220;-75
2021/01/14 13:46:50;;;;;;;14.38;3.00;;;;;;;;;;5014669;28;20172;-76
2021/01/14 13:49:19;;;;;;;10.95;3.20;;;;;;;;;;5014594;28;20183;-76
2021/01/14 13:51:47;;;;;;;6.00;3.47;;;;;;;;;;5014745;28;20209;-77
2021/01/14 13:54:13;;;;;;;7.72;3.22;;;;;;;;;;5014314;28;20212;-76
2021/01/14 13:56:39;;;;;;;6.68;3.17;;;;;;;;;;5014645;28;20256;-76
2021/01/14 13:59:06;;;;;;;7.23;4.33;;;;;;;;;;5014653;28;20229;-74
2021/01/14 14:01:32;;;;;;;10.30;3.60;;;;;;;;;;5014477;28;20448;-75
2021/01/14 14:03:59;;;;;;;11.75;3.50;;;;;;;;;;5014114;28;20539;-76
2021/01/14 14:06:29;;;;;;;6.13;3.70;;;;;;;;;;5014109;28;20260;-78
2021/01/14 14:08:55;;;;;;;6.55;3.92;;;;;;;;;;5014368;28;20167;-74
2021/01/14 14:11:21;;;;;;;6.43;3.70;;;;;;;;;;5014162;28;20273;-78
2021/01/14 14:13:47;;;;;;;9.25;3.90;;;;;;;;;;5013960;28;20402;-76
2021/01/14 14:16:16;;;;;;;8.23;4.50;;;;;;;;;;5014114;28;20213;-77
2021/01/14 14:18:42;;;;;;;8.27;3.75;;;;;;;;;;5014233;28;20776;-78
2021/01/14 14:21:10;;;;;;;7.40;5.25;;;;;;;;;;5014333;28;20172;-78
2021/01/14 14:23:36;;;;;;;10.85;3.25;;;;;;;;;;5012840;28;20175;-74
2021/01/14 14:26:02;;;;;;;4.50;2.65;;;;;;;;;;5013964;28;20281;-76
2021/01/14 14:28:28;;;;;;;4.10;3.00;;;;;;;;;;5012828;28;20191;-75
2021/01/14 14:30:54;;;;;;;4.87;2.80;;;;;;;;;;5014029;28;20418;-76
2021/01/14 14:33:20;;;;;;;4.63;2.55;;;;;;;;;;5013957;28;20496;-75
2021/01/14 14:35:46;;;;;;;6.13;2.60;;;;;;;;;;5013467;28;20199;-77
2021/01/14 14:38:12;;;;;;;6.72;2.95;;;;;;;;;;5013850;28;20182;-75
2021/01/14 14:40:38;;;;;;;9.10;3.17;;;;;;;;;;5013892;28;20179;-75
2021/01/14 14:43:04;;;;;;;6.55;3.63;;;;;;;;;;5013870;28;20217;-74
2021/01/14 14:45:30;;;;;;;4.30;2.83;;;;;;;;;;5013111;28;20212;-77